Terminal Aerodrome Forecast
Issued by NWS

Home | Current Version | Previous Version | Text Only | Print | Product List | Glossary On
Versions: 1 2 3 4 5 6 7 8 9 10 11 12 13 14 15 16 17 18 19 20 21 22 23 24 25 26 27 28
000
FTUS44 KOUN 290520
TAFPNC
TAF
KPNC 290520Z 2906/3006 15010KT P6SM SCT035 BKN080
      TEMPO 2908/2912 6SM TSRA BR OVC030CB
     FM291200 18010KT P6SM BKN100
      TEMPO 2920/2924 2SM +TSRA BR OVC025CB=

USA.gov is the U.S. government's official web portal to all federal, state and local government web resources and services.